Time;durP1;ratioP1;P1;durP2;ratioP2;P2;SDS_P1;SDS_P2;PMS_P1;PMS_P2;Temp;Humidity;BMP_temperature;BMP_pressure;BME280_temperature;BME280_humidity;BME280_pressure;Samples;Min_cycle;Max_cycle;Signal;HPM_P1;HPM_P2
2023/06/30 00:01:02;;;;;;;5.53;5.13;;;;;;;18.14;100.00;96552.03;5000600;28;20225;-69
2023/06/30 00:03:30;;;;;;;5.03;4.73;;;;;;;18.15;100.00;96548.28;4997869;28;20299;-68
2023/06/30 00:05:58;;;;;;;5.30;4.97;;;;;;;18.15;100.00;96545.59;4995061;28;20229;-69
2023/06/30 00:08:27;;;;;;;5.97;5.50;;;;;;;18.14;100.00;96544.81;4994088;28;20229;-67
2023/06/30 00:10:54;;;;;;;5.43;5.10;;;;;;;18.15;100.00;96548.28;4996836;28;20225;-71
2023/06/30 00:13:22;;;;;;;5.70;5.20;;;;;;;18.15;100.00;96542.91;4993264;28;20300;-68
2023/06/30 00:15:51;;;;;;;5.20;4.90;;;;;;;18.11;100.00;96547.97;4998222;28;20673;-69
2023/06/30 00:18:19;;;;;;;5.37;5.07;;;;;;;18.07;100.00;96542.28;4998974;28;20201;-70
2023/06/30 00:20:46;;;;;;;5.77;5.33;;;;;;;18.03;100.00;96538.50;4992956;28;20338;-69
2023/06/30 00:23:14;;;;;;;5.67;5.37;;;;;;;18.05;100.00;96543.63;4997856;28;20723;-68
2023/06/30 00:25:42;;;;;;;5.83;5.33;;;;;;;18.00;100.00;96535.47;4993126;28;20780;-67
2023/06/30 00:28:10;;;;;;;6.10;5.70;;;;;;;18.04;100.00;96537.44;4992601;28;20643;-69
2023/06/30 00:30:38;;;;;;;6.00;5.67;;;;;;;18.04;100.00;96539.31;4994781;28;20229;-68
2023/06/30 00:33:07;;;;;;;5.47;5.00;;;;;;;18.03;100.00;96535.81;4997736;28;20209;-68
2023/06/30 00:35:34;;;;;;;5.63;5.30;;;;;;;18.05;100.00;96533.69;4995524;28;20201;-69
2023/06/30 00:38:02;;;;;;;5.47;5.17;;;;;;;18.04;100.00;96536.63;4992761;28;20304;-69
2023/06/30 00:40:30;;;;;;;5.97;5.50;;;;;;;18.05;100.00;96531.00;4991450;28;20232;-68
2023/06/30 00:43:00;;;;;;;10.27;5.30;;;;;;;18.06;100.00;96524.59;4995351;28;20302;-68
2023/06/30 00:45:28;;;;;;;6.30;5.80;;;;;;;17.98;100.00;96534.88;4999426;28;20228;-67
2023/06/30 00:47:55;;;;;;;6.23;5.83;;;;;;;17.97;100.00;96526.06;4999937;28;20335;-68
2023/06/30 00:50:25;;;;;;;7.80;5.67;;;;;;;17.97;100.00;96520.69;4995681;28;20235;-71
2023/06/30 00:52:53;;;;;;;5.80;5.33;;;;;;;17.93;100.00;96509.66;4990276;28;21178;-69
2023/06/30 00:55:20;;;;;;;5.83;5.43;;;;;;;17.94;100.00;96511.28;4995370;28;20228;-69
2023/06/30 00:57:48;;;;;;;5.83;5.53;;;;;;;17.87;100.00;96515.22;4989277;28;20209;-68
2023/06/30 01:00:17;;;;;;;6.23;5.73;;;;;;;17.91;100.00;96506.41;4996385;28;20311;-69
2023/06/30 01:02:50;;;;;;;6.00;5.60;;;;;;;17.93;100.00;96511.53;4992550;28;20217;-69
2023/06/30 01:05:24;;;;;;;6.07;5.60;;;;;;;17.85;100.00;96510.09;4996920;28;20229;-69
2023/06/30 01:07:57;;;;;;;6.37;5.80;;;;;;;17.87;100.00;96505.28;4992546;28;20587;-69
2023/06/30 01:10:25;;;;;;;5.70;5.30;;;;;;;17.86;100.00;96508.22;4993876;28;20653;-71
2023/06/30 01:12:53;;;;;;;5.57;5.27;;;;;;;17.91;100.00;96503.72;4995459;28;20197;-69
2023/06/30 01:15:22;;;;;;;7.13;6.60;;;;;;;17.90;100.00;96504.78;4999653;28;20213;-69
2023/06/30 01:17:54;;;;;;;6.40;5.70;;;;;;;17.84;100.00;96502.31;4996644;28;20244;-69
2023/06/30 01:20:22;;;;;;;6.30;5.80;;;;;;;17.81;100.00;96508.97;4991566;28;20771;-68
2023/06/30 01:22:55;;;;;;;6.60;6.00;;;;;;;17.79;100.00;96509.19;4998118;28;20284;-70
2023/06/30 01:25:26;;;;;;;6.63;6.20;;;;;;;17.82;100.00;96501.75;4994915;28;20310;-70
2023/06/30 01:27:54;;;;;;;6.77;6.30;;;;;;;17.80;100.00;96496.63;4990975;28;20232;-65
2023/06/30 01:30:23;;;;;;;7.27;6.67;;;;;;;17.82;100.00;96497.19;4997354;28;20221;-67
2023/06/30 01:32:54;;;;;;;7.37;6.60;;;;;;;17.79;100.00;96497.69;4993903;28;20197;-72
2023/06/30 01:35:23;;;;;;;6.70;6.20;;;;;;;17.75;100.00;96501.91;4994863;28;20694;-70
2023/06/30 01:37:50;;;;;;;7.00;6.50;;;;;;;17.75;100.00;96497.34;4996429;28;20209;-71
2023/06/30 01:40:20;;;;;;;6.43;5.93;;;;;;;17.76;100.00;96495.50;4993523;28;20267;-69
2023/06/30 01:42:48;;;;;;;6.70;6.30;;;;;;;17.72;100.00;96489.81;4990592;28;22223;-72
2023/06/30 01:45:16;;;;;;;7.13;6.70;;;;;;;17.71;100.00;96490.06;4995623;28;20311;-72
2023/06/30 01:47:44;;;;;;;7.53;6.97;;;;;;;17.77;100.00;96487.19;4993725;28;20232;-70
2023/06/30 01:50:12;;;;;;;6.83;6.43;;;;;;;17.72;100.00;96481.78;4995385;28;20816;-71
2023/06/30 01:52:39;;;;;;;7.23;6.67;;;;;;;17.61;100.00;96474.66;4990417;28;20237;-72
2023/06/30 01:55:08;;;;;;;7.27;6.73;;;;;;;17.53;100.00;96475.88;4993990;28;20292;-70
2023/06/30 01:57:37;;;;;;;7.37;6.53;;;;;;;17.50;100.00;96471.84;4991864;28;20229;-71
2023/06/30 02:00:06;;;;;;;7.10;6.70;;;;;;;17.38;100.00;96464.97;4995759;28;20275;-70
2023/06/30 02:02:33;;;;;;;7.50;7.00;;;;;;;17.44;100.00;96470.16;4990147;28;20208;-69
2023/06/30 02:05:01;;;;;;;7.17;6.77;;;;;;;17.41;100.00;96465.25;4981341;28;20193;-70
2023/06/30 02:07:29;;;;;;;7.63;7.03;;;;;;;17.44;100.00;96477.38;4987998;28;20209;-70
2023/06/30 02:09:57;;;;;;;7.30;6.80;;;;;;;17.38;100.00;96476.47;4990710;28;20236;-71
2023/06/30 02:12:24;;;;;;;8.07;7.27;;;;;;;17.31;100.00;96481.19;4989290;28;20201;-70
2023/06/30 02:14:54;;;;;;;7.73;7.23;;;;;;;17.29;100.00;96477.94;4986680;28;20237;-70
2023/06/30 02:17:28;;;;;;;8.07;7.53;;;;;;;17.36;100.00;96482.09;4994767;28;20194;-71
2023/06/30 02:19:55;;;;;;;7.30;6.80;;;;;;;17.42;100.00;96487.50;4997035;28;20228;-70
2023/06/30 02:22:23;;;;;;;7.57;6.97;;;;;;;17.34;100.00;96480.69;4997564;28;20837;-72
2023/06/30 02:24:53;;;;;;;7.57;6.90;;;;;;;17.38;100.00;96478.34;4990371;28;20660;-71
2023/06/30 02:27:20;;;;;;;8.27;7.57;;;;;;;17.43;100.00;96473.06;4994744;28;20704;-71
2023/06/30 02:29:48;;;;;;;7.90;7.40;;;;;;;17.44;100.00;96472.00;4988713;28;20214;-72
2023/06/30 02:32:17;;;;;;;8.10;7.60;;;;;;;17.42;100.00;96466.09;4996318;28;21543;-71
2023/06/30 02:34:45;;;;;;;8.47;7.97;;;;;;;17.30;100.00;96467.00;4994853;28;20818;-71
2023/06/30 02:37:12;;;;;;;8.60;7.90;;;;;;;17.26;100.00;96460.53;4987863;28;20334;-71
2023/06/30 02:39:40;;;;;;;7.53;7.03;;;;;;;17.21;100.00;96457.75;4990739;28;20310;-71
2023/06/30 02:42:08;;;;;;;7.40;7.00;;;;;;;17.21;100.00;96461.25;4992031;28;20213;-71
2023/06/30 02:44:35;;;;;;;8.80;8.20;;;;;;;17.19;100.00;96457.19;4997054;28;20208;-70
2023/06/30 02:47:03;;;;;;;8.33;7.73;;;;;;;17.19;100.00;96460.69;4992068;28;20808;-71
2023/06/30 02:49:32;;;;;;;7.93;7.43;;;;;;;17.17;100.00;96453.94;4994821;28;20205;-70
2023/06/30 02:52:01;;;;;;;8.37;7.57;;;;;;;17.14;100.00;96451.75;4989211;28;20704;-72
2023/06/30 02:54:28;;;;;;;7.53;6.97;;;;;;;17.18;100.00;96455.56;4993996;28;20243;-71
2023/06/30 02:56:56;;;;;;;8.13;7.30;;;;;;;17.14;100.00;96457.94;4984680;28;20234;-71
2023/06/30 02:59:23;;;;;;;8.33;7.60;;;;;;;17.20;100.00;96464.97;4995039;28;20255;-71
2023/06/30 03:01:51;;;;;;;8.03;7.43;;;;;;;17.00;100.00;96456.59;4996332;28;20916;-71
2023/06/30 03:04:19;;;;;;;8.07;7.57;;;;;;;16.88;100.00;96456.69;4995869;28;20201;-71
2023/06/30 03:06:48;;;;;;;7.73;7.23;;;;;;;16.89;100.00;96463.66;4986969;28;20731;-71
2023/06/30 03:09:16;;;;;;;7.53;7.00;;;;;;;16.98;100.00;96456.03;4993607;28;20283;-71
2023/06/30 03:11:43;;;;;;;7.80;7.30;;;;;;;17.01;100.00;96456.38;4992953;28;20208;-70
2023/06/30 03:14:11;;;;;;;8.77;8.17;;;;;;;17.11;100.00;96452.22;4997752;28;20205;-71
2023/06/30 03:16:39;;;;;;;7.63;7.13;;;;;;;17.13;100.00;96450.13;4994092;28;20224;-69
2023/06/30 03:19:07;;;;;;;8.33;7.83;;;;;;;17.05;100.00;96464.75;4996080;28;20212;-68
2023/06/30 03:21:34;;;;;;;7.90;7.37;;;;;;;17.10;100.00;96459.47;4998369;28;20316;-70
2023/06/30 03:24:04;;;;;;;7.17;6.67;;;;;;;17.14;100.00;96451.75;4992549;28;20201;-69
2023/06/30 03:26:31;;;;;;;7.67;6.97;;;;;;;17.09;100.00;96444.47;4991313;28;20239;-71
2023/06/30 03:29:00;;;;;;;8.23;7.53;;;;;;;17.19;100.00;96463.34;4987239;28;21081;-69
2023/06/30 03:31:28;;;;;;;8.13;7.53;;;;;;;17.26;100.00;96460.53;4987237;28;20225;-70
2023/06/30 03:33:58;;;;;;;7.83;7.33;;;;;;;17.31;100.00;96470.47;4998817;28;20644;-69
2023/06/30 03:36:26;;;;;;;8.53;8.00;;;;;;;17.24;100.00;96465.31;5000306;28;20194;-69
2023/06/30 03:38:53;;;;;;;8.67;7.77;;;;;;;17.31;100.00;96468.63;4988744;28;20255;-69
2023/06/30 03:41:22;;;;;;;8.00;7.40;;;;;;;17.34;100.00;96462.78;4989851;28;20299;-69
2023/06/30 03:43:50;;;;;;;7.87;7.13;;;;;;;17.40;100.00;96468.19;4995191;28;20212;-70
2023/06/30 03:46:18;;;;;;;7.00;6.50;;;;;;;17.41;100.00;96464.47;4999017;28;20292;-71
2023/06/30 03:48:46;;;;;;;7.40;6.87;;;;;;;17.47;100.00;96469.66;4993522;28;20217;-70
2023/06/30 03:51:13;;;;;;;8.17;7.47;;;;;;;17.51;100.00;96469.97;4994576;28;20225;-69
2023/06/30 03:53:42;;;;;;;8.97;7.70;;;;;;;17.50;100.00;96473.69;4992487;28;20205;-69
2023/06/30 03:56:09;;;;;;;8.03;7.53;;;;;;;17.53;100.00;96478.56;4988947;28;20261;-69
2023/06/30 03:58:38;;;;;;;8.20;7.50;;;;;;;17.50;100.00;96479.06;4999223;28;20240;-69
2023/06/30 04:01:06;;;;;;;9.03;8.43;;;;;;;17.28;100.00;96477.16;4999671;28;20884;-69
2023/06/30 04:03:34;;;;;;;8.53;7.87;;;;;;;17.27;100.00;96480.88;4994901;28;20201;-70
2023/06/30 04:06:02;;;;;;;8.97;8.37;;;;;;;16.95;100.00;96486.75;4989416;28;20293;-69
2023/06/30 04:08:30;;;;;;;8.17;7.73;;;;;;;17.07;100.00;96487.50;4999662;28;20208;-69
2023/06/30 04:10:57;;;;;;;9.47;8.77;;;;;;;17.20;100.00;96481.03;4988116;28;20707;-68
2023/06/30 04:13:25;;;;;;;8.17;7.67;;;;;;;17.31;100.00;96484.69;4993039;28;20224;-67
2023/06/30 04:15:54;;;;;;;8.77;8.07;;;;;;;17.32;100.00;96474.78;4990294;28;20228;-69
2023/06/30 04:18:21;;;;;;;8.90;8.07;;;;;;;17.33;100.00;96479.06;5001465;28;20212;-71
2023/06/30 04:20:49;;;;;;;9.23;8.50;;;;;;;17.23;100.00;96474.38;4996559;28;20829;-71
2023/06/30 04:23:16;;;;;;;9.10;8.50;;;;;;;17.07;100.00;96474.13;4995533;28;20674;-69
2023/06/30 04:25:44;;;;;;;9.77;8.90;;;;;;;17.01;100.00;96477.78;4994706;28;20233;-70
2023/06/30 04:28:12;;;;;;;10.57;9.70;;;;;;;16.85;100.00;96487.38;4991160;28;20622;-68
2023/06/30 04:30:40;;;;;;;9.30;8.60;;;;;;;16.95;100.00;96477.91;4999434;28;20331;-70
2023/06/30 04:33:09;;;;;;;10.17;9.33;;;;;;;16.95;100.00;96484.09;4998024;28;20213;-71
2023/06/30 04:35:36;;;;;;;10.30;9.60;;;;;;;17.02;100.00;96473.22;4995153;28;21041;-68
2023/06/30 04:38:04;;;;;;;8.87;8.27;;;;;;;16.95;100.00;96481.41;4990210;28;20205;-69
2023/06/30 04:40:32;;;;;;;9.50;8.77;;;;;;;16.98;100.00;96477.44;4993183;28;20319;-71
2023/06/30 04:43:00;;;;;;;9.10;8.40;;;;;;;16.79;100.00;96477.66;4996307;28;20232;-71
2023/06/30 04:45:28;;;;;;;10.60;9.63;;;;;;;16.75;100.00;96477.31;4997669;28;20756;-70
2023/06/30 04:47:55;;;;;;;9.63;8.73;;;;;;;16.83;100.00;96480.63;4991615;28;20693;-71
2023/06/30 04:50:25;;;;;;;10.57;9.87;;;;;;;16.88;100.00;96481.56;4990884;28;20227;-71
2023/06/30 04:52:52;;;;;;;10.40;9.57;;;;;;;16.92;100.00;96490.72;4999152;28;20213;-69
2023/06/30 04:55:20;;;;;;;9.87;9.17;;;;;;;17.07;100.00;96482.16;4993606;28;20287;-71
2023/06/30 04:57:48;;;;;;;10.13;9.20;;;;;;;17.17;100.00;96478.03;4986960;28;20205;-68
2023/06/30 05:00:16;;;;;;;9.47;8.87;;;;;;;17.25;100.00;96482.16;4999120;28;20271;-69
2023/06/30 05:02:44;;;;;;;9.60;8.83;;;;;;;17.29;100.00;96478.78;4997902;28;20455;-69
2023/06/30 05:05:12;;;;;;;10.17;9.47;;;;;;;17.33;100.00;96474.53;4990113;28;20209;-68
2023/06/30 05:07:41;;;;;;;9.90;9.27;;;;;;;17.21;100.00;96471.94;4986033;28;20319;-69
2023/06/30 05:10:10;;;;;;;9.57;8.80;;;;;;;17.27;100.00;96472.84;4987561;28;20244;-69
2023/06/30 05:12:37;;;;;;;9.53;8.93;;;;;;;17.27;100.00;96475.53;4994931;28;20208;-70
2023/06/30 05:15:07;;;;;;;9.53;8.93;;;;;;;17.33;100.00;96471.88;4992262;28;20237;-69
2023/06/30 05:17:35;;;;;;;9.57;8.97;;;;;;;17.35;100.00;96477.78;4998709;28;20197;-69
2023/06/30 05:20:05;;;;;;;8.87;8.33;;;;;;;17.53;100.00;96473.19;4990706;28;20235;-69
2023/06/30 05:22:32;;;;;;;10.20;9.30;;;;;;;17.35;100.00;96471.59;4999526;28;20776;-68
2023/06/30 05:25:01;;;;;;;10.60;9.80;;;;;;;17.45;100.00;96471.78;4992835;28;20265;-69
2023/06/30 05:27:29;;;;;;;9.40;8.70;;;;;;;17.63;100.00;96467.19;4987855;28;20251;-69
2023/06/30 05:29:56;;;;;;;9.30;8.70;;;;;;;17.41;100.00;96472.50;4993116;28;20279;-69
2023/06/30 05:32:24;;;;;;;10.23;9.47;;;;;;;17.52;100.00;96468.13;4996709;28;20664;-71
2023/06/30 05:34:52;;;;;;;11.13;9.97;;;;;;;17.45;100.00;96466.41;4996776;28;20688;-67
2023/06/30 05:37:19;;;;;;;9.53;8.93;;;;;;;17.49;100.00;96478.25;4996188;28;20260;-69
2023/06/30 05:39:47;;;;;;;9.87;9.07;;;;;;;17.53;100.00;96480.44;4991628;28;20262;-68
2023/06/30 05:42:16;;;;;;;9.50;8.63;;;;;;;17.58;100.00;96475.94;4985811;28;20219;-68
2023/06/30 05:44:43;;;;;;;9.57;8.87;;;;;;;17.65;100.00;96478.47;4994280;28;20225;-69
2023/06/30 05:47:11;;;;;;;11.07;8.83;;;;;;;17.64;100.00;96480.34;4994235;28;20248;-68
2023/06/30 05:49:39;;;;;;;9.17;8.40;;;;;;;17.64;100.00;96482.19;4995852;28;20275;-69
2023/06/30 05:52:08;;;;;;;9.13;8.43;;;;;;;17.77;100.00;96484.50;4983892;28;20224;-67
2023/06/30 05:54:35;;;;;;;9.67;8.77;;;;;;;17.69;100.00;96460.84;4993848;28;20647;-66
2023/06/30 05:57:03;;;;;;;9.67;9.00;;;;;;;17.74;100.00;96465.47;4985595;28;20680;-67
2023/06/30 05:59:32;;;;;;;9.80;9.10;;;;;;;17.75;100.00;96475.13;4993382;28;20300;-68
2023/06/30 06:02:00;;;;;;;9.43;8.67;;;;;;;17.92;100.00;96470.50;4995241;28;20251;-68
2023/06/30 06:04:27;;;;;;;8.83;8.23;;;;;;;17.90;100.00;96466.47;4987864;28;20636;-67
2023/06/30 06:06:55;;;;;;;8.80;8.30;;;;;;;18.04;100.00;96465.06;4997213;28;20201;-67
2023/06/30 06:09:23;;;;;;;9.30;8.67;;;;;;;18.08;100.00;96462.72;4987311;28;20232;-69
2023/06/30 06:11:51;;;;;;;8.50;7.90;;;;;;;18.32;100.00;96470.47;4986362;28;20295;-68
2023/06/30 06:14:19;;;;;;;10.07;9.13;;;;;;;18.46;100.00;96470.88;4990681;28;20616;-68
2023/06/30 06:16:48;;;;;;;9.00;8.50;;;;;;;18.35;100.00;96464.59;4998655;28;20208;-68
2023/06/30 06:19:17;;;;;;;8.97;8.27;;;;;;;18.77;100.00;96458.59;4995417;28;20259;-69
2023/06/30 06:21:44;;;;;;;8.67;8.17;;;;;;;19.15;100.00;96455.97;4981087;28;20296;-69
2023/06/30 06:24:12;;;;;;;9.40;8.70;;;;;;;19.27;100.00;96458.47;4998067;28;20201;-68
2023/06/30 06:26:41;;;;;;;8.33;7.77;;;;;;;19.43;100.00;96451.34;4988457;28;20315;-69
2023/06/30 06:29:09;;;;;;;10.23;9.23;;;;;;;19.38;100.00;96462.06;4991329;28;20281;-69
2023/06/30 06:31:37;;;;;;;8.87;8.27;;;;;;;19.41;100.00;96458.03;4994700;28;20810;-68
2023/06/30 06:34:06;;;;;;;9.17;8.47;;;;;;;19.71;100.00;96454.72;4990354;28;20232;-69
2023/06/30 06:36:33;;;;;;;10.03;9.23;;;;;;;19.83;100.00;96462.56;4995266;28;20209;-70
2023/06/30 06:39:01;;;;;;;10.33;9.33;;;;;;;20.12;100.00;96456.00;4993593;28;20255;-69
2023/06/30 06:41:30;;;;;;;9.67;8.97;;;;;;;20.31;100.00;96453.66;4985957;28;20329;-68
2023/06/30 06:43:58;;;;;;;9.53;8.83;;;;;;;20.23;100.00;96463.84;4994032;28;20229;-69
2023/06/30 06:46:26;;;;;;;9.83;9.23;;;;;;;20.13;100.00;96461.13;4992708;28;20205;-68
2023/06/30 06:48:54;;;;;;;9.20;8.60;;;;;;;20.39;100.00;96456.63;4998333;28;20316;-68
2023/06/30 06:51:24;;;;;;;9.23;8.73;;;;;;;20.21;100.00;96454.44;4993884;28;20248;-68
2023/06/30 06:53:53;;;;;;;9.60;8.90;;;;;;;20.50;100.00;96459.34;4993188;28;20252;-70
2023/06/30 06:56:20;;;;;;;12.70;11.70;;;;;;;20.67;100.00;96459.13;4986196;28;21240;-69
2023/06/30 06:58:48;;;;;;;10.67;9.67;;;;;;;20.76;100.00;96465.59;4996717;28;20715;-69
2023/06/30 07:01:16;;;;;;;9.47;8.80;;;;;;;21.02;100.00;96456.75;4997405;28;20322;-69
2023/06/30 07:03:43;;;;;;;10.47;9.57;;;;;;;20.71;100.00;96464.75;4997144;28;20209;-68
2023/06/30 07:06:11;;;;;;;10.10;9.30;;;;;;;20.54;100.00;96463.13;4988881;28;20216;-67
2023/06/30 07:08:40;;;;;;;10.63;9.93;;;;;;;20.59;100.00;96463.13;4993186;28;20232;-69
2023/06/30 07:11:08;;;;;;;10.30;9.60;;;;;;;20.78;100.00;96457.22;4989879;28;20700;-69
2023/06/30 07:13:35;;;;;;;10.40;9.60;;;;;;;20.76;100.00;96462.06;4991584;28;20295;-70
2023/06/30 07:16:03;;;;;;;12.53;11.70;;;;;;;20.60;100.00;96464.75;4994118;28;20656;-66
2023/06/30 07:18:32;;;;;;;10.73;9.80;;;;;;;20.68;100.00;96461.53;4997174;28;20204;-69
2023/06/30 07:21:00;;;;;;;10.63;9.90;;;;;;;20.77;100.00;96466.38;4990668;28;20243;-70
2023/06/30 07:23:28;;;;;;;10.03;9.27;;;;;;;21.15;100.00;96466.97;4994689;28;20728;-69
2023/06/30 07:25:57;;;;;;;10.97;10.23;;;;;;;21.41;100.00;96469.66;4992962;28;21169;-69
2023/06/30 07:28:24;;;;;;;12.53;11.57;;;;;;;21.64;100.00;96464.78;4991115;28;20730;-68
2023/06/30 07:30:52;;;;;;;12.70;11.80;;;;;;;21.72;100.00;96466.94;4996658;28;20684;-68
2023/06/30 07:33:20;;;;;;;13.23;12.37;;;;;;;21.28;100.00;96468.31;4993018;28;20259;-69
2023/06/30 07:35:47;;;;;;;11.37;10.60;;;;;;;21.51;100.00;96472.31;4987384;28;20762;-69
2023/06/30 07:38:16;;;;;;;10.70;9.90;;;;;;;21.71;100.00;96465.31;4990676;28;20212;-70
2023/06/30 07:40:44;;;;;;;10.00;9.30;;;;;;;21.80;100.00;96458.28;4993664;28;20245;-68
2023/06/30 07:43:24;;;;;;;11.93;11.03;;;;;;;21.93;100.00;96454.19;4989767;28;20339;-68
2023/06/30 07:45:52;;;;;;;10.40;9.67;;;;;;;21.72;100.00;96460.72;4992610;28;20228;-69
2023/06/30 07:48:20;;;;;;;11.60;10.63;;;;;;;21.25;100.00;96450.00;4984550;28;20237;-70
2023/06/30 07:50:47;;;;;;;11.17;10.37;;;;;;;21.34;100.00;96445.66;4997871;28;20225;-67
2023/06/30 07:53:33;;;;;;;12.23;11.07;;;;;;;20.82;100.00;96453.78;4998519;28;20303;-70
2023/06/30 07:56:01;;;;;;;11.27;10.50;;;;;;;21.37;100.00;96449.72;4988091;28;20216;-71
2023/06/30 07:58:30;;;;;;;11.67;10.63;;;;;;;21.04;100.00;96439.25;4993554;28;20205;-70
2023/06/30 08:00:58;;;;;;;10.57;9.77;;;;;;;20.97;100.00;96441.38;4997956;28;20283;-69
2023/06/30 08:03:25;;;;;;;9.37;8.67;;;;;;;21.58;100.00;96445.09;4997405;28;20224;-68
2023/06/30 08:05:55;;;;;;;10.30;9.50;;;;;;;21.69;100.00;96452.09;4995458;28;20628;-69
2023/06/30 08:08:23;;;;;;;12.13;11.33;;;;;;;21.89;100.00;96453.13;4989313;28;20583;-68
2023/06/30 08:10:50;;;;;;;10.97;10.17;;;;;;;22.47;100.00;96454.50;4989108;28;20228;-71
2023/06/30 08:13:18;;;;;;;9.67;9.07;;;;;;;22.65;100.00;96454.94;4991622;28;20287;-67
2023/06/30 08:15:47;;;;;;;10.73;9.63;;;;;;;22.75;100.00;96457.56;4999750;28;20295;-68
2023/06/30 08:18:16;;;;;;;8.77;8.07;;;;;;;23.04;100.00;96456.81;4997989;28;20201;-69
2023/06/30 08:21:00;;;;;;;9.10;8.50;;;;;;;23.05;100.00;96457.63;4990320;28;20224;-69
2023/06/30 08:23:28;;;;;;;8.57;7.97;;;;;;;22.70;100.00;96463.81;4993608;28;20209;-68
2023/06/30 08:25:55;;;;;;;8.57;8.00;;;;;;;22.67;100.00;96453.56;4987010;28;20232;-68
2023/06/30 08:28:23;;;;;;;6.73;6.23;;;;;;;22.86;100.00;96458.31;4989954;28;20241;-67
2023/06/30 08:30:52;;;;;;;8.93;7.57;;;;;;;22.91;100.00;96462.84;4996432;28;20241;-69
2023/06/30 08:33:21;;;;;;;7.80;7.23;;;;;;;22.94;100.00;96465.00;4996525;28;20197;-68
2023/06/30 08:36:06;;;;;;;8.70;7.83;;;;;;;22.50;100.00;96458.53;4991724;28;20251;-69
2023/06/30 08:38:34;;;;;;;8.27;7.70;;;;;;;22.60;100.00;96463.09;4994896;28;20571;-69
2023/06/30 08:41:02;;;;;;;8.60;8.00;;;;;;;22.95;100.00;96462.00;4990525;28;20232;-69
2023/06/30 08:43:32;;;;;;;8.87;8.07;;;;;;;22.70;100.00;96461.09;4990612;28;20208;-69
2023/06/30 08:46:02;;;;;;;9.43;8.53;;;;;;;22.96;100.00;96465.53;5000656;28;20205;-70
2023/06/30 08:48:31;;;;;;;9.63;8.80;;;;;;;22.95;100.00;96470.13;4994208;28;20240;-68
2023/06/30 08:50:59;;;;;;;9.00;8.23;;;;;;;23.07;100.00;96463.53;4998596;28;20224;-69
2023/06/30 08:53:28;;;;;;;10.37;9.53;;;;;;;22.77;100.00;96468.91;4990817;28;20423;-69
2023/06/30 08:55:59;;;;;;;10.57;7.43;;;;;;;22.96;100.00;96468.25;4991238;28;20206;-69
2023/06/30 08:58:27;;;;;;;7.40;6.90;;;;;;;23.47;100.00;96460.81;4991503;28;20291;-69
2023/06/30 09:00:55;;;;;;;8.70;8.00;;;;;;;22.98;100.00;96466.06;4997172;28;20228;-70
2023/06/30 09:03:25;;;;;;;8.57;7.97;;;;;;;23.13;100.00;96465.94;4995269;28;20213;-69
2023/06/30 09:05:55;;;;;;;8.93;8.20;;;;;;;23.00;100.00;96450.38;4992434;28;20216;-69
2023/06/30 09:08:24;;;;;;;8.60;8.00;;;;;;;23.29;100.00;96459.63;4994969;28;20200;-69
2023/06/30 09:10:51;;;;;;;8.50;7.77;;;;;;;23.31;100.00;96463.66;4993555;28;20236;-69
2023/06/30 09:13:20;;;;;;;9.40;8.60;;;;;;;23.56;100.00;96467.19;4990305;28;20699;-69
2023/06/30 09:15:48;;;;;;;7.33;6.73;;;;;;;23.69;100.00;96452.19;4998355;28;20717;-69
2023/06/30 09:18:16;;;;;;;9.43;8.73;;;;;;;23.59;100.00;96455.81;4997652;28;20221;-69
2023/06/30 09:20:45;;;;;;;8.23;7.63;;;;;;;23.85;100.00;96447.44;4989495;28;20229;-69
2023/06/30 09:23:14;;;;;;;9.23;8.47;;;;;;;23.59;100.00;96457.72;4991312;28;20209;-70
2023/06/30 09:25:41;;;;;;;9.23;8.63;;;;;;;23.81;100.00;96451.81;4993482;28;20209;-70
2023/06/30 09:28:14;;;;;;;9.00;8.30;;;;;;;24.14;100.00;96450.06;4993360;28;20643;-68
2023/06/30 09:30:45;;;;;;;9.43;8.83;;;;;;;23.75;100.00;96452.97;4995073;28;20322;-68
2023/06/30 09:33:14;;;;;;;8.10;7.57;;;;;;;23.72;100.00;96448.13;4998591;28;20212;-68
2023/06/30 09:35:43;;;;;;;8.70;8.10;;;;;;;23.21;100.00;96448.31;4989201;28;20673;-69
2023/06/30 09:38:13;;;;;;;8.77;8.07;;;;;;;23.45;100.00;96457.59;4993675;28;20210;-69
2023/06/30 09:40:45;;;;;;;9.27;8.37;;;;;;;23.69;100.00;96450.31;4992751;28;20959;-69
2023/06/30 09:43:17;;;;;;;8.37;7.67;;;;;;;23.83;100.00;96449.63;4993647;28;20281;-67
2023/06/30 09:45:47;;;;;;;9.63;8.83;;;;;;;23.56;100.00;96445.56;4996578;28;20281;-68
2023/06/30 09:48:15;;;;;;;9.93;9.23;;;;;;;23.20;100.00;96435.06;4996024;28;20201;-68
2023/06/30 09:50:43;;;;;;;11.47;10.47;;;;;;;23.15;100.00;96441.34;4992677;28;20236;-68
2023/06/30 09:53:12;;;;;;;10.50;9.67;;;;;;;23.44;100.00;96431.63;4993809;28;20206;-69
2023/06/30 09:55:47;;;;;;;11.70;9.97;;;;;;;23.11;100.00;96440.31;4990699;28;20305;-69
2023/06/30 09:58:15;;;;;;;9.93;9.23;;;;;;;23.70;100.00;96435.69;4993632;28;20216;-68
2023/06/30 10:00:43;;;;;;;15.87;14.57;;;;;;;23.73;100.00;96430.81;4994668;28;20253;-70
2023/06/30 10:03:11;;;;;;;9.50;8.77;;;;;;;23.91;100.00;96434.66;4996184;28;20205;-69
2023/06/30 10:05:39;;;;;;;9.50;8.80;;;;;;;24.31;100.00;96437.16;4996852;28;20259;-68
2023/06/30 10:08:08;;;;;;;10.50;9.80;;;;;;;24.51;100.00;96436.06;4993015;28;20615;-69
2023/06/30 10:10:37;;;;;;;10.40;9.60;;;;;;;24.89;100.00;96441.47;4990213;28;20235;-68
2023/06/30 10:13:06;;;;;;;9.37;8.67;;;;;;;25.18;100.00;96428.81;4987464;28;20253;-69
2023/06/30 10:15:34;;;;;;;11.63;10.73;;;;;;;25.34;100.00;96430.16;4995423;28;20288;-69
2023/06/30 10:18:03;;;;;;;11.37;10.50;;;;;;;25.18;100.00;96431.53;4996729;28;20209;-67
2023/06/30 10:20:30;;;;;;;10.97;10.07;;;;;;;25.24;100.00;96425.72;4993563;28;20233;-69
2023/06/30 10:23:15;;;;;;;10.73;9.73;;;;;;;25.44;100.00;96426.47;4991262;28;20247;-69
2023/06/30 10:25:44;;;;;;;9.73;9.03;;;;;;;25.89;100.00;96425.91;4994777;28;20323;-69
2023/06/30 10:28:13;;;;;;;11.87;10.97;;;;;;;25.17;100.00;96422.59;4992125;28;20268;-69
2023/06/30 10:30:41;;;;;;;10.00;9.20;;;;;;;25.65;100.00;96431.53;4993873;28;20350;-68
2023/06/30 10:33:08;;;;;;;10.63;9.73;;;;;;;25.71;100.00;96414.06;4995166;28;20197;-68
2023/06/30 10:35:36;;;;;;;11.20;10.10;;;;;;;25.25;100.00;96413.78;4994364;28;20399;-67
2023/06/30 10:38:04;;;;;;;10.60;9.73;;;;;;;25.63;100.00;96425.59;4990537;28;20653;-70
2023/06/30 10:40:32;;;;;;;10.40;9.40;;;;;;;25.52;100.00;96420.38;4987468;28;20629;-68
2023/06/30 10:43:01;;;;;;;11.73;10.77;;;;;;;25.33;100.00;96412.28;4992648;28;20208;-67
2023/06/30 10:45:30;;;;;;;11.03;10.03;;;;;;;25.42;100.00;96409.72;4996175;28;20250;-68
2023/06/30 10:47:58;;;;;;;11.03;10.30;;;;;;;25.66;100.00;96408.72;4997983;28;20209;-69
2023/06/30 10:50:26;;;;;;;12.50;11.33;;;;;;;25.45;100.00;96395.56;4993804;28;20643;-67
2023/06/30 10:52:54;;;;;;;12.87;11.87;;;;;;;25.49;100.00;96398.47;4990729;28;20228;-68
2023/06/30 10:55:23;;;;;;;12.07;11.13;;;;;;;25.61;100.00;96396.09;4992891;28;21064;-70
2023/06/30 10:57:52;;;;;;;13.03;11.90;;;;;;;25.52;100.00;96397.88;4990953;28;20676;-69
2023/06/30 11:00:24;;;;;;;11.80;10.90;;;;;;;25.41;100.00;96398.03;4996905;28;20811;-69
2023/06/30 11:02:57;;;;;;;12.00;10.80;;;;;;;25.67;100.00;96394.88;4987780;28;20284;-69
2023/06/30 11:05:26;;;;;;;12.80;11.80;;;;;;;25.04;100.00;96388.94;4987220;28;20209;-69
2023/06/30 11:07:55;;;;;;;12.63;11.53;;;;;;;25.47;100.00;96370.84;4996135;28;20197;-68
2023/06/30 11:10:27;;;;;;;14.03;12.77;;;;;;;24.88;100.00;96377.56;4992576;28;21095;-70
2023/06/30 11:12:56;;;;;;;14.23;12.93;;;;;;;25.44;100.00;96364.13;4985222;28;20693;-70
2023/06/30 11:15:34;;;;;;;13.53;12.27;;;;;;;25.43;100.00;96374.16;4995591;28;20201;-69
2023/06/30 11:18:03;;;;;;;14.10;12.50;;;;;;;25.95;100.00;96377.78;4994316;28;20739;-68
2023/06/30 11:20:31;;;;;;;12.67;11.50;;;;;;;26.36;100.00;96370.69;4992842;28;20442;-69
2023/06/30 11:23:00;;;;;;;13.57;12.30;;;;;;;26.23;100.00;96372.34;4991211;28;20213;-69
2023/06/30 11:25:29;;;;;;;17.10;12.57;;;;;;;26.27;100.00;96374.09;4991899;28;20669;-71
2023/06/30 11:27:57;;;;;;;14.00;12.67;;;;;;;26.43;100.00;96382.72;4988717;28;20209;-70